Time;durP1;ratioP1;P1;durP2;ratioP2;P2;SDS_P1;SDS_P2;PMS_P1;PMS_P2;Temp;Humidity;BMP_temperature;BMP_pressure;BME280_temperature;BME280_humidity;BME280_pressure;Samples;Min_cycle;Max_cycle;Signal;HPM_P1;HPM_P2
2022/06/20 00:00:12;;;;;;;16.10;5.88;;;;;;;25.58;53.03;98694.38;343105;28;1803;-72
2022/06/20 00:00:25;;;;;;;14.05;6.25;;;;;;;25.59;53.03;98693.38;343585;28;1663;-72
2022/06/20 00:00:38;;;;;;;13.93;6.57;;;;;;;25.60;53.42;98687.06;343022;28;1895;-72
2022/06/20 00:00:50;;;;;;;15.63;6.43;;;;;;;25.58;53.08;98694.38;342338;28;1054;-72
2022/06/20 00:01:02;;;;;;;14.40;6.30;;;;;;;25.60;53.07;98689.72;342546;28;1957;-71
2022/06/20 00:01:14;;;;;;;13.40;6.35;;;;;;;25.59;53.33;98690.72;343869;28;1686;-72
2022/06/20 00:01:26;;;;;;;14.95;6.32;;;;;;;25.61;53.15;98694.03;343958;28;1344;-72
2022/06/20 00:01:40;;;;;;;14.30;6.60;;;;;;;25.60;53.28;98692.38;343868;28;1042;-72
2022/06/20 00:01:52;;;;;;;14.70;6.47;;;;;;;25.60;53.03;98693.22;343013;28;1857;-71
2022/06/20 00:02:14;;;;;;;14.82;6.32;;;;;;;25.59;52.80;98688.06;343766;28;1658;-71
2022/06/20 00:02:26;;;;;;;18.27;6.60;;;;;;;25.61;52.84;98694.03;343183;28;1263;-71
2022/06/20 00:02:46;;;;;;;15.95;6.57;;;;;;;25.57;53.11;98698.03;342151;28;1698;-72
2022/06/20 00:02:59;;;;;;;13.27;6.50;;;;;;;25.54;52.92;98693.06;342365;28;1184;-71
2022/06/20 00:03:20;;;;;;;15.25;6.68;;;;;;;25.54;52.91;98698.41;342357;28;1850;-71
2022/06/20 00:03:39;;;;;;;19.08;6.35;;;;;;;25.54;52.93;98695.72;343547;28;1807;-71
2022/06/20 00:03:52;;;;;;;15.63;6.40;;;;;;;25.55;52.79;98694.72;344948;28;1057;-72
2022/06/20 00:04:05;;;;;;;15.80;6.38;;;;;;;25.54;52.67;98693.91;342516;28;1583;-71
2022/06/20 00:04:18;;;;;;;15.93;6.20;;;;;;;25.56;52.78;98699.06;342647;28;1881;-71
2022/06/20 00:04:34;;;;;;;15.70;6.20;;;;;;;25.54;53.07;98693.06;344808;28;1432;-72
2022/06/20 00:04:48;;;;;;;16.52;6.30;;;;;;;25.54;53.01;98693.06;344832;28;1046;-71
2022/06/20 00:05:02;;;;;;;15.60;6.43;;;;;;;25.53;53.14;98694.88;345229;28;1106;-72
2022/06/20 00:05:28;;;;;;;15.20;6.57;;;;;;;25.55;52.97;98689.41;343593;28;1896;-71
2022/06/20 00:05:40;;;;;;;12.48;6.15;;;;;;;25.57;52.84;98701.53;343364;28;1297;-71
2022/06/20 00:05:53;;;;;;;13.55;5.80;;;;;;;25.61;52.64;98697.53;343870;28;1042;-72
2022/06/20 00:06:05;;;;;;;14.68;5.97;;;;;;;25.63;52.50;98708.00;343521;28;1689;-71
2022/06/20 00:06:20;;;;;;;15.90;6.13;;;;;;;25.61;52.66;98694.84;343035;28;1814;-71
2022/06/20 00:06:32;;;;;;;14.65;6.20;;;;;;;25.63;52.94;98697.34;342891;28;1859;-71
2022/06/20 00:06:44;;;;;;;15.07;6.40;;;;;;;25.64;52.83;98699.84;342757;28;1193;-71
2022/06/20 00:06:56;;;;;;;14.02;6.53;;;;;;;25.64;53.20;98699.03;342760;28;1901;-72
2022/06/20 00:07:11;;;;;;;14.02;6.57;;;;;;;25.63;52.86;98697.34;343019;28;1918;-71
2022/06/20 00:07:23;;;;;;;13.77;6.57;;;;;;;25.63;52.62;98698.19;343473;28;1740;-71
2022/06/20 00:07:36;;;;;;;13.38;6.30;;;;;;;25.64;52.78;98701.69;343661;28;1807;-72
2022/06/20 00:07:48;;;;;;;12.55;6.15;;;;;;;25.63;52.51;98694.69;342023;28;1828;-72
2022/06/20 00:08:00;;;;;;;14.13;6.40;;;;;;;25.65;52.63;98695.34;342787;28;2118;-72
2022/06/20 00:08:12;;;;;;;14.98;6.20;;;;;;;25.67;52.37;98698.69;342935;28;1724;-72
2022/06/20 00:08:24;;;;;;;13.73;5.95;;;;;;;25.67;52.37;98696.00;342716;28;2014;-72
2022/06/20 00:08:36;;;;;;;13.35;5.80;;;;;;;25.68;51.99;98695.03;344061;28;1060;-72
2022/06/20 00:08:51;;;;;;;14.00;5.85;;;;;;;25.69;52.37;98696.69;344549;28;1290;-72
2022/06/20 00:09:03;;;;;;;15.35;6.00;;;;;;;25.68;52.23;98695.84;342060;28;1721;-72
2022/06/20 00:09:15;;;;;;;17.55;6.30;;;;;;;25.68;51.96;98697.69;343089;28;1942;-72
2022/06/20 00:09:27;;;;;;;16.67;6.38;;;;;;;25.70;52.15;98693.03;342283;28;1836;-72
2022/06/20 00:09:39;;;;;;;14.73;6.10;;;;;;;25.70;52.19;98693.03;342740;28;1799;-72
2022/06/20 00:09:51;;;;;;;14.70;6.10;;;;;;;25.70;52.00;98693.03;342407;28;1934;-72
2022/06/20 00:10:03;;;;;;;14.95;6.07;;;;;;;25.69;52.22;98688.69;343980;28;1046;-72
2022/06/20 00:10:17;;;;;;;15.07;6.32;;;;;;;25.70;52.19;98693.03;343127;28;1831;-72
2022/06/20 00:10:31;;;;;;;15.65;6.30;;;;;;;25.69;52.44;98694.00;343648;28;1472;-72
2022/06/20 00:10:45;;;;;;;16.65;6.70;;;;;;;25.69;52.36;98699.34;343619;28;1071;-72
2022/06/20 00:10:57;;;;;;;14.43;6.47;;;;;;;25.68;52.96;98695.03;343563;28;1043;-72
2022/06/20 00:11:19;;;;;;;13.05;5.97;;;;;;;25.68;52.88;98695.03;343791;28;1094;-72
2022/06/20 00:11:36;;;;;;;13.57;6.00;;;;;;;25.70;53.22;98695.69;343054;28;1452;-72
2022/06/20 00:11:50;;;;;;;12.63;5.80;;;;;;;25.72;52.45;98696.34;344121;28;1131;-72
2022/06/20 00:12:04;;;;;;;10.38;5.50;;;;;;;25.72;52.45;98688.38;343961;28;1150;-72
2022/06/20 00:12:21;;;;;;;11.10;5.82;;;;;;;25.71;52.68;98694.66;343383;28;1905;-71
2022/06/20 00:12:33;;;;;;;15.00;6.30;;;;;;;25.73;52.70;98695.34;343719;28;1316;-71
2022/06/20 00:12:46;;;;;;;14.90;6.25;;;;;;;25.73;52.71;98692.66;342733;28;1983;-72
2022/06/20 00:13:00;;;;;;;13.48;6.35;;;;;;;25.72;52.95;98691.03;343787;28;1121;-71
2022/06/20 00:13:27;;;;;;;13.32;6.28;;;;;;;25.72;52.92;98696.34;343642;28;1063;-71
2022/06/20 00:13:42;;;;;;;13.88;6.32;;;;;;;25.72;52.91;98691.03;343715;28;1147;-71
2022/06/20 00:13:55;;;;;;;14.48;6.40;;;;;;;25.70;53.14;98691.19;343648;28;1156;-72
2022/06/20 00:14:12;;;;;;;14.02;5.93;;;;;;;25.71;53.19;98695.50;343686;28;1132;-72
2022/06/20 00:14:24;;;;;;;11.23;5.35;;;;;;;25.74;52.65;98688.19;343750;28;1681;-72
2022/06/20 00:14:36;;;;;;;12.73;5.47;;;;;;;25.73;53.04;98690.00;344610;28;1070;-72
2022/06/20 00:14:52;;;;;;;15.32;5.70;;;;;;;25.73;52.36;98689.19;344700;28;1035;-72
2022/06/20 00:15:04;;;;;;;15.80;6.28;;;;;;;25.73;52.31;98684.69;344342;28;1878;-72
2022/06/20 00:15:22;;;;;;;15.45;6.35;;;;;;;25.74;52.34;98689.03;342942;28;1599;-71
2022/06/20 00:15:35;;;;;;;18.15;5.90;;;;;;;25.76;52.56;98686.19;342232;28;1779;-72
2022/06/20 00:15:50;;;;;;;17.92;5.95;;;;;;;25.74;52.35;98689.03;342140;28;1072;-71
2022/06/20 00:16:02;;;;;;;13.40;5.97;;;;;;;25.76;52.42;98687.03;341947;28;1133;-72
2022/06/20 00:16:17;;;;;;;11.45;5.80;;;;;;;25.78;52.43;98687.69;341286;28;1962;-71
2022/06/20 00:16:32;;;;;;;12.52;5.80;;;;;;;25.79;52.10;98686.66;341745;28;1588;-73
2022/06/20 00:16:45;;;;;;;14.23;6.05;;;;;;;25.79;52.48;98686.66;341284;29;1026;-71
2022/06/20 00:16:57;;;;;;;14.73;6.15;;;;;;;25.79;52.60;98681.34;341203;28;1219;-72
2022/06/20 00:17:12;;;;;;;14.75;6.20;;;;;;;25.79;53.18;98686.66;343382;28;1610;-72
2022/06/20 00:17:25;;;;;;;14.65;6.10;;;;;;;25.78;53.37;98690.34;343475;28;1613;-71
2022/06/20 00:17:37;;;;;;;13.57;6.18;;;;;;;25.77;53.62;98678.03;343480;28;1195;-72
2022/06/20 00:17:50;;;;;;;11.52;6.00;;;;;;;25.77;53.27;98683.34;343159;28;1812;-73
2022/06/20 00:18:04;;;;;;;11.13;5.72;;;;;;;25.79;53.08;98688.50;343472;28;1746;-71
2022/06/20 00:18:23;;;;;;;13.30;5.75;;;;;;;25.78;53.09;98687.69;343264;28;1987;-71
2022/06/20 00:18:35;;;;;;;13.77;5.90;;;;;;;25.80;52.88;98684.84;342253;28;1280;-72
2022/06/20 00:18:48;;;;;;;13.10;5.85;;;;;;;25.80;52.64;98685.69;343479;28;1193;-72
2022/06/20 00:19:00;;;;;;;13.32;5.90;;;;;;;25.81;52.13;98689.97;342595;28;1340;-72
2022/06/20 00:19:13;;;;;;;14.55;6.05;;;;;;;25.81;52.16;98689.16;342323;28;1903;-72
2022/06/20 00:19:25;;;;;;;13.60;5.93;;;;;;;25.80;51.89;98677.69;342939;28;1730;-72
2022/06/20 00:19:38;;;;;;;14.23;5.50;;;;;;;25.82;51.67;98690.84;343524;28;1274;-72
2022/06/20 00:19:50;;;;;;;13.38;5.65;;;;;;;25.82;51.53;98691.66;342709;28;1762;-72
2022/06/20 00:20:03;;;;;;;11.10;5.45;;;;;;;25.82;51.72;98691.66;343111;28;1797;-72
2022/06/20 00:20:16;;;;;;;12.90;5.68;;;;;;;25.83;51.81;98685.31;341784;28;3830;-72
2022/06/20 00:20:28;;;;;;;14.73;5.70;;;;;;;25.83;51.31;98693.31;341901;28;3917;-72
2022/06/20 00:20:41;;;;;;;15.27;5.60;;;;;;;25.79;51.42;98691.97;343370;28;1825;-72
2022/06/20 00:20:53;;;;;;;13.55;5.68;;;;;;;25.77;51.58;98696.66;343854;28;1098;-72
2022/06/20 00:21:05;;;;;;;13.93;6.10;;;;;;;25.76;51.33;98687.03;343347;28;1721;-72
2022/06/20 00:21:21;;;;;;;13.77;5.88;;;;;;;25.73;51.67;98695.34;341923;28;1555;-72
2022/06/20 00:21:33;;;;;;;14.48;5.93;;;;;;;25.66;51.76;98689.88;343257;28;1581;-72
2022/06/20 00:21:47;;;;;;;14.82;6.07;;;;;;;25.67;51.83;98693.34;343122;28;1728;-72
2022/06/20 00:22:00;;;;;;;15.07;5.97;;;;;;;25.61;51.88;98696.69;341395;28;4375;-72
2022/06/20 00:22:12;;;;;;;15.40;6.10;;;;;;;25.63;51.71;98694.69;342798;28;4041;-72
2022/06/20 00:22:24;;;;;;;14.68;6.00;;;;;;;25.62;52.08;98690.38;342587;28;2411;-72
2022/06/20 00:22:36;;;;;;;14.10;6.07;;;;;;;25.62;51.87;98691.22;343856;28;1653;-72
2022/06/20 00:22:48;;;;;;;14.18;6.00;;;;;;;25.63;51.99;98689.38;343780;28;1573;-72
2022/06/20 00:23:00;;;;;;;15.02;6.20;;;;;;;25.58;52.01;98694.38;345106;28;1081;-72
2022/06/20 00:23:12;;;;;;;16.60;6.32;;;;;;;25.58;52.01;98683.75;345116;28;1018;-72
2022/06/20 00:23:24;;;;;;;16.63;6.30;;;;;;;25.52;52.03;98686.06;343351;28;1576;-72
2022/06/20 00:23:36;;;;;;;15.07;6.00;;;;;;;25.55;51.98;98689.41;343066;28;1299;-72
2022/06/20 00:23:48;;;;;;;14.93;6.10;;;;;;;25.59;51.96;98688.06;343509;28;1251;-72
2022/06/20 00:24:00;;;;;;;14.32;6.10;;;;;;;25.61;51.71;98688.72;343926;28;3906;-72
2022/06/20 00:24:13;;;;;;;12.32;5.93;;;;;;;25.63;51.81;98686.72;342953;28;1886;-72
2022/06/20 00:24:26;;;;;;;12.45;6.00;;;;;;;25.64;51.94;98691.03;343557;28;1666;-72
2022/06/20 00:24:39;;;;;;;12.48;5.88;;;;;;;25.66;51.97;98689.03;342064;28;1063;-72
2022/06/20 00:24:51;;;;;;;12.35;5.68;;;;;;;25.69;51.98;98694.00;343303;28;1088;-72
2022/06/20 00:25:03;;;;;;;12.55;5.90;;;;;;;25.68;52.19;98689.72;344513;28;1749;-72
2022/06/20 00:25:16;;;;;;;13.00;6.18;;;;;;;25.68;51.77;98689.72;343133;28;2059;-72
2022/06/20 00:25:30;;;;;;;12.95;6.07;;;;;;;25.67;51.75;98682.72;343153;28;1247;-72
2022/06/20 00:25:42;;;;;;;12.52;5.80;;;;;;;25.67;51.81;98688.03;342210;28;1296;-72
2022/06/20 00:25:55;;;;;;;13.70;5.97;;;;;;;25.67;51.85;98682.72;342429;28;1031;-72
2022/06/20 00:26:08;;;;;;;13.15;6.00;;;;;;;25.64;52.09;98693.72;342106;28;1352;-72
2022/06/20 00:26:20;;;;;;;13.30;5.97;;;;;;;25.61;52.15;98694.03;342037;28;1011;-72
2022/06/20 00:26:34;;;;;;;14.77;6.03;;;;;;;25.62;52.15;98687.72;344304;28;1258;-72
2022/06/20 00:26:46;;;;;;;15.35;5.80;;;;;;;25.62;52.24;98695.72;344735;28;1285;-72
2022/06/20 00:26:58;;;;;;;13.95;5.63;;;;;;;25.63;52.08;98687.53;344857;28;1067;-72
2022/06/20 00:27:11;;;;;;;13.05;5.70;;;;;;;25.64;52.12;98688.38;343899;28;1717;-72
2022/06/20 00:27:23;;;;;;;13.18;5.50;;;;;;;25.63;52.08;98697.34;343988;28;1598;-71
2022/06/20 00:27:35;;;;;;;15.13;5.90;;;;;;;25.64;51.94;98688.38;344262;28;1314;-72
2022/06/20 00:27:48;;;;;;;15.20;5.93;;;;;;;25.64;51.98;98691.03;344786;28;1641;-72
2022/06/20 00:28:00;;;;;;;13.10;5.60;;;;;;;25.64;52.25;98683.06;343210;28;1659;-72
2022/06/20 00:28:14;;;;;;;14.32;5.50;;;;;;;25.65;52.26;98687.38;343813;28;1140;-72
2022/06/20 00:28:26;;;;;;;14.93;5.80;;;;;;;25.65;52.03;98690.03;343627;28;1209;-72
2022/06/20 00:28:38;;;;;;;12.93;5.90;;;;;;;25.66;52.25;98691.72;343829;28;1052;-72
2022/06/20 00:28:50;;;;;;;12.55;5.90;;;;;;;25.66;52.07;98691.72;343666;28;1167;-72
2022/06/20 00:29:04;;;;;;;12.48;5.60;;;;;;;25.65;52.11;98687.38;343671;28;1007;-72
2022/06/20 00:29:16;;;;;;;13.52;5.68;;;;;;;25.65;52.27;98690.84;343080;28;1737;-72
2022/06/20 00:29:28;;;;;;;14.13;5.80;;;;;;;25.64;52.42;98689.22;343186;28;1358;-72
2022/06/20 00:29:44;;;;;;;13.02;6.00;;;;;;;25.64;52.37;98691.03;341979;28;1039;-72
2022/06/20 00:29:56;;;;;;;14.30;6.22;;;;;;;25.64;51.98;98691.03;342395;28;1232;-72
2022/06/20 00:30:11;;;;;;;13.60;6.03;;;;;;;25.63;52.40;98695.53;342321;28;1734;-72
2022/06/20 00:30:24;;;;;;;12.07;5.53;;;;;;;25.63;52.33;98687.53;343283;28;1890;-72
2022/06/20 00:30:37;;;;;;;12.98;5.60;;;;;;;25.64;52.42;98696.38;344182;28;1195;-72
2022/06/20 00:30:49;;;;;;;13.52;5.95;;;;;;;25.62;52.17;98685.06;343466;28;1731;-72
2022/06/20 00:31:03;;;;;;;13.57;5.88;;;;;;;25.62;52.23;98691.22;342469;28;992;-72
2022/06/20 00:31:16;;;;;;;12.38;5.78;;;;;;;25.62;52.28;98690.38;341538;28;1809;-72
2022/06/20 00:31:28;;;;;;;13.32;5.85;;;;;;;25.63;52.11;98689.38;340512;29;1520;-72
2022/06/20 00:31:40;;;;;;;13.45;5.93;;;;;;;25.60;52.17;98687.88;340275;28;1105;-72
2022/06/20 00:31:52;;;;;;;14.57;5.90;;;;;;;25.57;52.30;98688.22;342145;28;1322;-72
2022/06/20 00:32:06;;;;;;;15.52;6.00;;;;;;;25.56;52.41;98685.75;342327;28;1030;-72
2022/06/20 00:32:18;;;;;;;14.55;5.90;;;;;;;25.57;52.20;98688.22;341186;28;1799;-72
2022/06/20 00:32:31;;;;;;;13.93;5.90;;;;;;;25.57;52.25;98687.41;341181;28;1465;-72
2022/06/20 00:32:43;;;;;;;15.07;6.05;;;;;;;25.58;52.27;98689.06;341712;28;1037;-72
2022/06/20 00:32:55;;;;;;;15.35;6.18;;;;;;;25.57;52.61;98690.06;342101;28;1046;-72
2022/06/20 00:33:08;;;;;;;15.38;5.97;;;;;;;25.58;52.40;98694.38;343014;28;1043;-72
2022/06/20 00:33:19;;;;;;;16.65;5.93;;;;;;;25.57;52.29;98687.41;342368;28;1882;-72
2022/06/20 00:33:31;;;;;;;15.60;5.85;;;;;;;25.56;52.48;98686.56;343374;28;1533;-72
2022/06/20 00:33:43;;;;;;;15.07;6.03;;;;;;;25.56;52.26;98691.06;343703;28;1326;-72
2022/06/20 00:33:55;;;;;;;13.40;5.70;;;;;;;25.55;52.41;98689.41;342064;28;1877;-72
2022/06/20 00:34:10;;;;;;;10.82;5.22;;;;;;;25.54;52.65;98687.75;343682;28;1209;-72
2022/06/20 00:34:22;;;;;;;10.70;5.35;;;;;;;25.53;52.31;98692.22;343011;28;1758;-72
2022/06/20 00:34:34;;;;;;;11.07;5.47;;;;;;;25.51;52.62;98689.75;342229;28;1459;-72
2022/06/20 00:34:46;;;;;;;12.27;5.72;;;;;;;25.52;52.59;98685.25;343038;28;1464;-72
2022/06/20 00:34:58;;;;;;;12.00;5.68;;;;;;;25.49;52.48;98689.09;342916;28;2519;-72
2022/06/20 00:35:11;;;;;;;13.82;5.75;;;;;;;25.47;52.72;98688.44;343828;28;1274;-72
2022/06/20 00:35:23;;;;;;;12.80;5.78;;;;;;;25.47;52.61;98680.44;343169;28;1508;-72
2022/06/20 00:35:36;;;;;;;11.65;5.82;;;;;;;25.46;52.76;98689.41;343692;28;1137;-72
2022/06/20 00:35:48;;;;;;;12.45;5.88;;;;;;;25.46;52.47;98689.41;343447;28;1729;-72
2022/06/20 00:36:01;;;;;;;14.98;6.10;;;;;;;25.45;52.63;98679.75;342080;28;1514;-72
2022/06/20 00:36:13;;;;;;;14.05;6.00;;;;;;;25.45;52.81;98685.06;342719;28;1790;-72
2022/06/20 00:36:25;;;;;;;13.75;6.13;;;;;;;25.36;52.98;98683.44;342874;28;1656;-72
2022/06/20 00:36:37;;;;;;;14.15;6.45;;;;;;;25.36;52.93;98691.44;344389;28;1232;-72
2022/06/20 00:36:49;;;;;;;15.13;6.40;;;;;;;25.35;53.08;98687.09;344747;28;1051;-72
2022/06/20 00:37:04;;;;;;;13.90;6.45;;;;;;;25.34;52.79;98682.78;344832;28;1027;-72
2022/06/20 00:37:19;;;;;;;14.35;6.40;;;;;;;25.35;52.84;98684.44;342280;28;1762;-72
2022/06/20 00:37:32;;;;;;;13.30;5.95;;;;;;;25.36;52.75;98686.09;341619;28;1634;-72
2022/06/20 00:37:44;;;;;;;13.38;6.13;;;;;;;25.23;53.15;98681.31;342021;28;1067;-72
2022/06/20 00:37:58;;;;;;;14.93;6.40;;;;;;;25.26;53.26;98682.78;341282;28;1886;-72
2022/06/20 00:38:22;;;;;;;14.15;6.25;;;;;;;25.26;53.17;98680.97;342075;28;1919;-72
2022/06/20 00:38:35;;;;;;;14.77;6.20;;;;;;;25.26;53.33;98680.13;342737;28;1296;-72
2022/06/20 00:38:53;;;;;;;12.70;5.90;;;;;;;25.28;53.38;98678.13;343468;28;1260;-72
2022/06/20 00:39:05;;;;;;;13.73;6.28;;;;;;;25.30;53.29;98684.13;342744;28;1824;-72
2022/06/20 00:39:19;;;;;;;13.27;6.30;;;;;;;25.29;53.21;98685.09;342848;28;2023;-72
2022/06/20 00:39:32;;;;;;;11.02;6.30;;;;;;;25.30;53.46;98681.47;344156;28;1212;-72
2022/06/20 00:39:45;;;;;;;11.38;6.15;;;;;;;25.31;52.94;98688.41;343529;28;1216;-72
2022/06/20 00:40:00;;;;;;;12.77;5.90;;;;;;;25.33;53.06;98688.25;343318;28;1018;-72
2022/06/20 00:40:25;;;;;;;13.45;5.95;;;;;;;25.34;53.00;98687.28;342598;28;1728;-72
2022/06/20 00:40:43;;;;;;;12.82;6.03;;;;;;;25.31;52.89;98680.44;344907;28;1210;-72
2022/06/20 00:40:59;;;;;;;12.52;5.90;;;;;;;25.29;53.13;98685.09;343907;28;1980;-72
2022/06/20 00:41:17;;;;;;;12.98;6.05;;;;;;;25.26;53.26;98682.78;342188;28;1864;-72
2022/06/20 00:41:31;;;;;;;14.32;5.95;;;;;;;25.20;53.32;98684.25;342641;28;2070;-72
2022/06/20 00:41:43;;;;;;;18.20;6.07;;;;;;;25.21;53.37;98682.41;344879;28;1152;-72
2022/06/20 00:41:56;;;;;;;19.42;6.28;;;;;;;25.21;53.25;98679.75;345004;28;1087;-72
2022/06/20 00:42:09;;;;;;;16.00;6.03;;;;;;;25.20;53.39;98686.91;344859;28;1130;-72
2022/06/20 00:42:21;;;;;;;13.90;6.03;;;;;;;25.19;53.26;98684.41;342646;28;2206;-72
2022/06/20 00:42:33;;;;;;;15.02;6.05;;;;;;;25.18;53.29;98682.78;342143;28;1276;-72
2022/06/20 00:42:45;;;;;;;13.48;5.80;;;;;;;25.18;53.33;98688.09;341961;28;1053;-72
2022/06/20 00:42:57;;;;;;;12.65;6.13;;;;;;;25.18;53.69;98688.91;343406;28;1031;-72
2022/06/20 00:43:13;;;;;;;14.32;6.60;;;;;;;25.18;53.51;98682.78;343394;28;1142;-72
2022/06/20 00:43:41;;;;;;;13.40;6.13;;;;;;;25.17;53.63;98687.25;343028;28;2183;-72
2022/06/20 00:43:54;;;;;;;12.35;6.35;;;;;;;25.17;53.57;98687.25;342345;28;1713;-72
2022/06/20 00:44:12;;;;;;;11.43;6.28;;;;;;;25.17;53.44;98687.25;342778;28;1722;-72
2022/06/20 00:44:31;;;;;;;11.70;6.20;;;;;;;25.17;53.35;98686.41;343312;28;1051;-72
2022/06/20 00:44:48;;;;;;;14.25;6.00;;;;;;;25.16;53.43;98682.94;342043;28;1239;-72
2022/06/20 00:45:01;;;;;;;16.40;6.25;;;;;;;25.09;53.90;98685.44;343473;28;1549;-72
2022/06/20 00:45:14;;;;;;;14.88;6.45;;;;;;;25.10;53.79;98686.25;343147;28;1410;-72
2022/06/20 00:45:30;;;;;;;13.75;6.57;;;;;;;25.08;53.76;98681.09;342617;28;1660;-72
2022/06/20 00:45:47;;;;;;;11.77;6.40;;;;;;;25.10;53.78;98686.25;342405;28;1113;-72
2022/06/20 00:46:04;;;;;;;13.68;6.40;;;;;;;25.05;53.89;98678.78;342246;28;1177;-72
2022/06/20 00:46:32;;;;;;;14.90;6.55;;;;;;;25.06;53.93;98679.63;341840;28;1741;-72
2022/06/20 00:46:56;;;;;;;16.67;6.50;;;;;;;25.03;54.13;98680.78;342172;28;1047;-72
2022/06/20 00:47:21;;;;;;;16.13;6.90;;;;;;;25.01;54.17;98682.78;342754;28;1200;-72
2022/06/20 00:47:35;;;;;;;15.05;6.47;;;;;;;25.03;54.03;98686.09;343122;28;1403;-72
2022/06/20 00:47:48;;;;;;;14.05;6.05;;;;;;;25.03;54.45;98680.78;343322;28;1558;-72
2022/06/20 00:48:26;;;;;;;16.63;6.20;;;;;;;24.95;54.65;98683.44;342725;28;1891;-72
2022/06/20 00:49:08;;;;;;;13.98;6.63;;;;;;;25.00;54.61;98674.97;342645;28;1841;-72
2022/06/20 00:49:26;;;;;;;10.50;6.37;;;;;;;25.01;54.58;98676.59;338137;29;1764;-72
2022/06/20 00:49:45;;;;;;;10.73;6.20;;;;;;;25.02;54.61;98679.09;338470;29;1962;-72
2022/06/20 00:50:06;;;;;;;15.90;6.53;;;;;;;25.05;54.20;98678.78;342683;28;1763;-72
2022/06/20 00:50:26;;;;;;;11.43;6.05;;;;;;;25.08;54.25;98682.94;343305;28;1067;-72
2022/06/20 00:50:39;;;;;;;12.43;6.22;;;;;;;25.07;54.16;98684.78;343338;28;1388;-72
2022/06/20 00:50:56;;;;;;;14.55;6.35;;;;;;;25.08;54.20;98677.63;343401;28;1082;-71
2022/06/20 00:51:28;;;;;;;16.52;6.68;;;;;;;25.07;54.16;98670.63;343412;28;1046;-71
2022/06/20 00:51:49;;;;;;;13.52;6.30;;;;;;;25.07;54.14;98682.13;342875;28;1306;-72
2022/06/20 00:52:21;;;;;;;14.88;6.10;;;;;;;25.07;54.31;98682.13;343519;28;1075;-72
2022/06/20 00:52:38;;;;;;;14.52;6.40;;;;;;;25.06;54.40;98685.75;340375;28;4185;-72
2022/06/20 00:52:56;;;;;;;13.90;6.70;;;;;;;25.08;54.53;98683.75;342085;28;1128;-72
2022/06/20 00:53:24;;;;;;;15.20;6.75;;;;;;;25.06;54.90;98685.75;342126;28;3719;-72
2022/06/20 00:53:46;;;;;;;14.20;6.10;;;;;;;25.08;54.35;98681.09;343378;28;1055;-72
2022/06/20 00:54:08;;;;;;;13.50;6.22;;;;;;;25.10;54.10;98687.09;342430;28;1630;-72
2022/06/20 00:54:29;;;;;;;13.00;6.40;;;;;;;25.08;54.12;98689.09;342748;28;2011;-72
2022/06/20 00:54:54;;;;;;;13.13;6.30;;;;;;;25.05;54.15;98689.44;343069;28;1223;-72
2022/06/20 00:55:15;;;;;;;15.82;6.63;;;;;;;25.04;54.26;98686.94;342242;28;1743;-72
2022/06/20 00:55:38;;;;;;;15.10;6.28;;;;;;;25.02;54.41;98695.06;344403;28;1583;-72
2022/06/20 00:56:27;;;;;;;14.30;6.20;;;;;;;24.99;54.75;98700.72;343466;28;1082;-72
2022/06/20 00:57:00;;;;;;;15.38;6.65;;;;;;;24.98;54.68;98692.91;343270;28;1083;-72
2022/06/20 00:57:15;;;;;;;13.38;6.35;;;;;;;24.99;54.50;98694.56;342097;28;1178;-72
2022/06/20 00:57:36;;;;;;;11.77;6.13;;;;;;;25.01;54.53;98692.56;342935;28;1316;-72
2022/06/20 00:58:01;;;;;;;12.70;6.50;;;;;;;25.01;54.73;98697.88;343113;28;1295;-72
2022/06/20 00:58:37;;;;;;;14.15;6.45;;;;;;;25.02;54.86;98695.06;342586;28;1865;-72
2022/06/20 00:59:00;;;;;;;11.90;6.43;;;;;;;25.03;54.75;98686.09;341889;28;1051;-72
2022/06/20 00:59:16;;;;;;;18.20;6.37;;;;;;;25.04;54.75;98697.56;343300;28;1191;-72
2022/06/20 00:59:42;;;;;;;14.50;6.25;;;;;;;25.05;54.43;98686.78;342078;28;1323;-72
2022/06/20 01:00:06;;;;;;;15.35;6.78;;;;;;;25.06;54.54;98691.06;342144;28;1193;-72
2022/06/20 01:00:28;;;;;;;14.60;6.68;;;;;;;25.08;54.39;98689.09;343422;28;1738;-72
2022/06/20 01:00:41;;;;;;;14.65;6.22;;;;;;;25.04;54.36;98690.41;342670;28;1633;-71
2022/06/20 01:00:55;;;;;;;15.15;6.28;;;;;;;25.02;54.17;98687.09;343228;28;1082;-72
2022/06/20 01:01:16;;;;;;;15.00;6.22;;;;;;;25.03;54.21;98696.75;343529;28;1035;-72
2022/06/20 01:01:37;;;;;;;14.98;6.35;;;;;;;24.99;54.31;98698.06;343435;28;1238;-72
2022/06/20 01:01:50;;;;;;;13.65;6.50;;;;;;;24.98;54.21;98692.91;342356;28;1115;-72
2022/06/20 01:02:06;;;;;;;15.65;6.50;;;;;;;24.95;54.37;98694.09;343220;28;1977;-72
2022/06/20 01:02:25;;;;;;;16.85;6.53;;;;;;;24.92;54.39;98695.22;343592;28;1177;-72
2022/06/20 01:02:43;;;;;;;15.20;6.40;;;;;;;24.90;54.51;98691.91;344193;28;1232;-72
2022/06/20 01:03:18;;;;;;;14.07;6.30;;;;;;;24.88;54.38;98693.06;344698;28;1249;-72
2022/06/20 01:03:36;;;;;;;14.73;6.18;;;;;;;24.84;54.66;98692.56;342786;28;1551;-72
2022/06/20 01:03:54;;;;;;;15.68;6.40;;;;;;;24.79;54.52;98691.38;343836;28;1030;-72
2022/06/20 01:04:14;;;;;;;13.55;6.10;;;;;;;24.75;54.35;98690.06;342903;28;1784;-72
2022/06/20 01:04:42;;;;;;;12.60;6.05;;;;;;;24.72;54.81;98691.22;342844;28;1862;-72
2022/06/20 01:05:05;;;;;;;13.77;6.10;;;;;;;24.71;54.86;98685.09;342127;28;1936;-72
2022/06/20 01:05:27;;;;;;;11.57;6.32;;;;;;;24.69;55.07;98687.06;343033;28;1899;-72
2022/06/20 01:06:00;;;;;;;13.70;6.47;;;;;;;24.69;55.15;98681.75;343391;28;1063;-71
2022/06/20 01:06:20;;;;;;;15.10;6.43;;;;;;;24.67;55.02;98681.09;342101;28;952;-72
2022/06/20 01:06:37;;;;;;;16.08;6.80;;;;;;;24.59;55.28;98682.88;342857;28;2054;-72
2022/06/20 01:06:54;;;;;;;16.13;6.60;;;;;;;24.59;55.48;98686.41;342369;28;1095;-72
2022/06/20 01:07:16;;;;;;;15.48;6.50;;;;;;;24.58;55.19;98682.06;341846;28;1057;-72
2022/06/20 01:07:35;;;;;;;14.57;6.28;;;;;;;24.54;55.60;98679.91;343090;28;1628;-72
2022/06/20 01:07:50;;;;;;;14.23;6.38;;;;;;;24.44;56.07;98674.69;343394;28;1338;-71
2022/06/20 01:08:15;;;;;;;15.18;6.55;;;;;;;24.46;55.74;98678.03;342631;28;1810;-72
2022/06/20 01:08:32;;;;;;;14.63;6.65;;;;;;;24.47;55.63;98683.19;342375;28;1310;-72
2022/06/20 01:08:49;;;;;;;18.40;6.75;;;;;;;24.44;55.63;98678.19;344772;28;1038;-72
2022/06/20 01:09:09;;;;;;;15.95;6.30;;;;;;;24.44;55.88;98680.84;344984;28;1342;-72
2022/06/20 01:09:27;;;;;;;14.43;6.43;;;;;;;24.45;55.79;98687.00;343000;28;1790;-72
2022/06/20 01:09:43;;;;;;;14.98;6.43;;;;;;;24.48;55.52;98676.84;344200;28;4469;-72
2022/06/20 01:09:57;;;;;;;14.57;6.30;;;;;;;24.50;55.79;98676.72;344934;28;1105;-72
2022/06/20 01:10:13;;;;;;;15.13;6.30;;;;;;;24.50;56.02;98677.56;344707;28;4739;-72
2022/06/20 01:10:27;;;;;;;14.77;6.25;;;;;;;24.49;55.87;98675.06;344447;28;1689;-71
2022/06/20 01:10:50;;;;;;;14.27;6.35;;;;;;;24.48;55.54;98681.34;344948;28;1075;-71
2022/06/20 01:11:06;;;;;;;16.55;6.32;;;;;;;24.49;55.74;98678.53;342940;28;1726;-72
2022/06/20 01:11:34;;;;;;;14.73;6.50;;;;;;;24.50;55.52;98684.72;343992;28;1554;-72
2022/06/20 01:11:50;;;;;;;12.88;6.30;;;;;;;24.48;55.58;98689.31;343395;28;1513;-72
2022/06/20 01:12:03;;;;;;;13.48;6.47;;;;;;;24.46;55.95;98683.34;343413;28;1019;-72
2022/06/20 01:12:20;;;;;;;15.30;6.82;;;;;;;24.45;55.84;98692.31;342987;28;1851;-72
2022/06/20 01:12:43;;;;;;;16.52;6.75;;;;;;;24.42;55.76;98687.31;344792;28;1643;-71
2022/06/20 01:12:58;;;;;;;15.93;6.90;;;;;;;24.41;55.78;98697.13;343461;28;1421;-72
2022/06/20 01:13:15;;;;;;;17.25;7.10;;;;;;;24.41;56.16;98685.63;343462;28;1193;-71
2022/06/20 01:13:27;;;;;;;15.13;7.28;;;;;;;24.32;56.22;98698.06;343412;28;1629;-72
2022/06/20 01:13:39;;;;;;;14.27;6.82;;;;;;;24.30;56.29;98692.91;342925;28;1043;-72
2022/06/20 01:13:52;;;;;;;14.55;6.63;;;;;;;24.28;56.43;98692.25;343870;28;1095;-72
2022/06/20 01:14:24;;;;;;;13.20;6.65;;;;;;;24.35;56.25;98691.59;342333;28;1130;-71
2022/06/20 01:14:38;;;;;;;15.00;7.10;;;;;;;24.35;56.19;98691.59;344443;28;1194;-71
2022/06/20 01:14:50;;;;;;;13.65;6.88;;;;;;;24.37;56.17;98694.91;344351;28;1023;-71
2022/06/20 01:15:19;;;;;;;13.63;6.57;;;;;;;24.36;56.15;98701.25;343173;28;1618;-71
2022/06/20 01:15:39;;;;;;;13.57;6.63;;;;;;;24.38;56.01;98691.28;341752;28;3804;-72